Time;durP1;ratioP1;P1;durP2;ratioP2;P2;SDS_P1;SDS_P2;PMS_P1;PMS_P2;Temp;Humidity;BMP_temperature;BMP_pressure;BME280_temperature;BME280_humidity;BME280_pressure;Samples;Min_cycle;Max_cycle;Signal;HPM_P1;HPM_P2
2023/04/19 00:00:37;;;;;;;7.33;4.33;;;7.60;1.00;;;;;;5093112;28;20454;-82
2023/04/19 00:03:06;;;;;;;9.87;4.80;;;7.50;1.00;;;;;;5099820;28;20962;-81
2023/04/19 00:05:33;;;;;;;9.63;5.00;;;7.50;1.00;;;;;;5095401;27;20438;-81
2023/04/19 00:08:00;;;;;;;10.20;5.10;;;7.40;1.00;;;;;;5092106;28;20512;-81
2023/04/19 00:10:27;;;;;;;7.80;4.80;;;7.40;1.00;;;;;;5091142;28;20426;-81
2023/04/19 00:12:56;;;;;;;8.10;4.90;;;7.40;1.00;;;;;;5093782;28;20479;-80
2023/04/19 00:15:23;;;;;;;15.67;8.13;;;7.40;1.00;;;;;;5095963;28;20317;-83
2023/04/19 00:17:50;;;;;;;7.50;3.97;;;7.40;1.00;;;;;;5094892;28;20458;-81
2023/04/19 00:20:17;;;;;;;8.60;4.63;;;7.50;1.00;;;;;;5094888;28;20459;-82
2023/04/19 00:22:44;;;;;;;10.07;4.97;;;7.60;1.00;;;;;;5093719;28;20451;-81
2023/04/19 00:25:11;;;;;;;7.30;4.17;;;7.70;1.00;;;;;;5101210;28;20645;-82
2023/04/19 00:27:40;;;;;;;8.63;4.70;;;7.70;1.00;;;;;;5111683;28;20473;-82
2023/04/19 00:30:10;;;;;;;7.97;3.80;;;7.70;1.00;;;;;;5093509;28;20441;-81
2023/04/19 00:32:38;;;;;;;7.47;3.95;;;7.80;1.00;;;;;;5094238;28;20481;-80
2023/04/19 00:35:06;;;;;;;6.80;3.90;;;7.80;1.00;;;;;;5086497;28;20241;-81
2023/04/19 00:37:36;;;;;;;7.40;4.00;;;7.80;1.00;;;;;;5106833;28;20539;-81
2023/04/19 00:40:04;;;;;;;7.30;3.60;;;7.80;1.00;;;;;;5096480;27;20486;-81
2023/04/19 00:42:31;;;;;;;9.30;3.93;;;7.80;1.00;;;;;;5090868;28;20561;-82
2023/04/19 00:45:00;;;;;;;7.90;3.83;;;7.80;1.00;;;;;;5092186;28;20471;-81
2023/04/19 00:47:29;;;;;;;7.63;3.60;;;7.80;1.00;;;;;;5089457;28;20474;-80
2023/04/19 00:49:56;;;;;;;6.30;3.30;;;7.80;1.00;;;;;;5089533;28;20427;-81
2023/04/19 00:52:23;;;;;;;7.67;4.13;;;7.80;1.00;;;;;;5091613;28;20426;-82
2023/04/19 00:54:50;;;;;;;7.80;4.17;;;7.80;1.00;;;;;;5091734;28;20481;-81
2023/04/19 00:57:18;;;;;;;8.00;4.20;;;7.80;1.00;;;;;;5094177;28;21289;-80
2023/04/19 00:59:45;;;;;;;6.30;3.70;;;7.70;1.00;;;;;;5092586;28;20521;-81
2023/04/19 01:02:16;;;;;;;7.83;4.00;;;7.60;1.00;;;;;;5110577;22;20515;-79
2023/04/19 01:04:45;;;;;;;8.00;3.90;;;7.60;1.00;;;;;;5114066;22;20979;-79
2023/04/19 01:07:13;;;;;;;7.88;4.53;;;7.60;1.00;;;;;;5094140;27;20458;-79
2023/04/19 01:09:43;;;;;;;7.93;4.50;;;7.50;1.00;;;;;;5095142;28;20247;-78
2023/04/19 01:12:10;;;;;;;10.43;4.93;;;7.50;1.00;;;;;;5107613;27;20461;-79
2023/04/19 01:14:37;;;;;;;8.53;4.10;;;7.50;1.00;;;;;;5108658;27;20474;-80
2023/04/19 01:17:05;;;;;;;8.70;4.50;;;7.40;1.00;;;;;;5095077;28;21261;-79
2023/04/19 01:19:33;;;;;;;9.07;3.90;;;7.30;1.00;;;;;;5110713;27;21141;-80
2023/04/19 01:22:03;;;;;;;6.57;3.40;;;7.30;1.00;;;;;;5107259;27;20454;-78
2023/04/19 01:24:32;;;;;;;9.10;4.22;;;7.20;1.00;;;;;;5095161;27;20475;-78
2023/04/19 01:26:59;;;;;;;7.00;3.60;;;7.10;1.00;;;;;;5094872;27;20722;-79
2023/04/19 01:29:26;;;;;;;7.90;4.37;;;7.00;1.00;;;;;;5113812;27;20517;-79
2023/04/19 01:31:55;;;;;;;8.52;4.22;;;6.90;1.00;;;;;;5112167;27;20556;-79
2023/04/19 01:34:23;;;;;;;10.90;3.90;;;6.80;1.00;;;;;;5112064;27;20239;-79
2023/04/19 01:36:50;;;;;;;8.00;3.75;;;6.70;1.00;;;;;;5113245;27;20518;-79
2023/04/19 01:39:18;;;;;;;9.87;4.50;;;6.60;1.00;;;;;;5124458;27;20224;-78
2023/04/19 01:41:48;;;;;;;8.00;4.30;;;6.60;1.00;;;;;;5115236;27;20472;-80
2023/04/19 01:44:15;;;;;;;8.45;3.50;;;6.60;1.00;;;;;;5095494;27;20485;-80
2023/04/19 01:46:42;;;;;;;7.47;4.03;;;6.50;1.00;;;;;;5107248;27;20232;-79
2023/04/19 01:49:09;;;;;;;8.03;4.17;;;6.50;1.00;;;;;;5105077;27;20530;-78
2023/04/19 01:51:38;;;;;;;8.30;3.73;;;6.40;1.00;;;;;;5118388;27;20487;-78
2023/04/19 01:54:05;;;;;;;8.30;4.77;;;6.40;1.00;;;;;;5124563;27;20450;-77
2023/04/19 01:56:34;;;;;;;8.00;3.90;;;6.30;1.00;;;;;;5120971;27;20447;-80
2023/04/19 01:59:04;;;;;;;8.47;4.10;;;6.30;1.00;;;;;;5110850;28;20547;-78
2023/04/19 02:01:31;;;;;;;11.57;4.40;;;6.20;1.00;;;;;;5128239;27;20440;-79
2023/04/19 02:04:03;;;;;;;7.13;3.70;;;6.20;1.00;;;;;;5109226;27;20239;-79
2023/04/19 02:06:30;;;;;;;9.82;4.30;;;6.20;1.00;;;;;;5130525;27;20462;-79
2023/04/19 02:09:00;;;;;;;7.80;4.13;;;6.20;1.00;;;;;;5132983;27;20219;-81
2023/04/19 02:11:27;;;;;;;6.40;3.50;;;6.10;1.00;;;;;;5117815;27;20245;-79
2023/04/19 02:14:02;;;;;;;8.13;3.65;;;6.10;1.00;;;;;;5109096;27;20554;-78
2023/04/19 02:16:36;;;;;;;8.05;4.13;;;6.10;1.00;;;;;;5111221;27;20244;-79
2023/04/19 02:19:09;;;;;;;10.90;4.10;;;6.10;1.00;;;;;;5122378;27;20291;-79
2023/04/19 02:21:38;;;;;;;7.97;4.00;;;6.00;1.00;;;;;;5120410;27;20317;-78
2023/04/19 02:24:06;;;;;;;8.10;4.03;;;6.00;1.00;;;;;;5091604;27;20252;-79
2023/04/19 02:26:33;;;;;;;8.18;4.10;;;6.00;1.00;;;;;;5097650;28;20519;-79
2023/04/19 02:29:00;;;;;;;7.57;3.60;;;6.00;1.00;;;;;;5110750;27;20733;-80
2023/04/19 02:31:27;;;;;;;11.57;4.50;;;6.00;1.00;;;;;;5106810;27;20231;-79
2023/04/19 02:34:05;;;;;;;9.77;4.47;;;5.90;1.00;;;;;;5094606;27;20238;-80
2023/04/19 02:36:32;;;;;;;9.82;4.22;;;5.80;1.00;;;;;;5091580;27;21011;-78
2023/04/19 02:39:00;;;;;;;8.75;4.43;;;5.80;1.00;;;;;;5092352;27;20241;-80
2023/04/19 02:41:27;;;;;;;8.05;4.50;;;5.70;1.00;;;;;;5110660;27;20241;-78
2023/04/19 02:43:56;;;;;;;7.90;4.10;;;5.70;1.00;;;;;;5075962;27;20315;-79
2023/04/19 02:46:24;;;;;;;7.68;4.18;;;5.60;1.00;;;;;;5107125;27;20243;-79
2023/04/19 02:48:51;;;;;;;8.43;3.90;;;5.60;1.00;;;;;;5111017;27;20352;-79
2023/04/19 02:51:20;;;;;;;6.97;3.83;;;5.60;1.00;;;;;;5109668;27;20234;-79
2023/04/19 02:53:47;;;;;;;7.75;3.90;;;5.60;1.00;;;;;;5093949;27;20238;-78
2023/04/19 02:56:15;;;;;;;8.80;4.70;;;5.50;1.00;;;;;;5091022;27;20235;-78
2023/04/19 02:58:42;;;;;;;7.65;3.75;;;5.50;1.00;;;;;;5088855;27;20244;-81
2023/04/19 03:01:10;;;;;;;6.68;3.55;;;5.60;1.00;;;;;;5108877;27;20246;-80
2023/04/19 03:03:37;;;;;;;7.93;3.78;;;5.50;1.00;;;;;;5089287;28;20670;-80
2023/04/19 03:06:06;;;;;;;9.35;4.40;;;5.50;1.00;;;;;;5085210;27;20237;-79
2023/04/19 03:08:35;;;;;;;10.25;4.82;;;5.40;1.00;;;;;;5090948;27;20253;-79
2023/04/19 03:11:07;;;;;;;8.45;4.47;;;5.30;1.00;;;;;;5087912;28;20300;-79
2023/04/19 03:13:34;;;;;;;6.40;3.35;;;5.30;1.00;;;;;;5080060;27;20235;-81
2023/04/19 03:16:01;;;;;;;10.40;4.20;;;5.30;1.00;;;;;;5088907;27;20264;-80
2023/04/19 03:18:28;;;;;;;9.35;4.90;;;5.30;1.00;;;;;;5087766;27;20247;-79
2023/04/19 03:20:55;;;;;;;7.28;3.35;;;5.30;1.00;;;;;;5088502;27;20592;-79
2023/04/19 03:23:23;;;;;;;6.63;3.35;;;5.20;1.00;;;;;;5092862;27;20243;-79
2023/04/19 03:25:52;;;;;;;11.55;4.18;;;5.20;1.00;;;;;;5086163;27;20237;-79
2023/04/19 03:28:27;;;;;;;8.10;4.10;;;5.20;1.00;;;;;;5088037;27;20237;-79
2023/04/19 03:30:55;;;;;;;8.18;3.80;;;5.10;1.00;;;;;;5087734;28;20240;-79
2023/04/19 03:33:23;;;;;;;8.95;3.75;;;5.10;1.00;;;;;;5086423;27;20291;-79
2023/04/19 04:08:00;;;;;;;14.43;5.30;;;5.00;1.00;;;;;;5253959;23;20321;-81
2023/04/19 04:10:29;;;;;;;12.60;4.80;;;5.00;1.00;;;;;;5021052;28;20367;-81
2023/04/19 04:12:57;;;;;;;14.70;5.13;;;5.00;1.00;;;;;;5017794;28;20230;-80
2023/04/19 04:15:25;;;;;;;7.75;3.55;;;5.00;1.00;;;;;;5007705;28;20246;-81
2023/04/19 04:17:52;;;;;;;10.13;4.75;;;5.00;1.00;;;;;;5021263;28;20246;-79
2023/04/19 04:20:21;;;;;;;10.93;5.45;;;5.00;1.00;;;;;;5020285;28;20246;-80
2023/04/19 04:22:48;;;;;;;9.27;4.60;;;5.00;1.00;;;;;;5022473;28;20331;-80
2023/04/19 04:25:15;;;;;;;13.38;4.07;;;5.00;1.00;;;;;;5025459;28;20236;-80
2023/04/19 04:27:44;;;;;;;7.32;3.83;;;5.00;1.00;;;;;;5021951;28;20268;-82
2023/04/19 04:30:12;;;;;;;9.05;3.70;;;5.10;1.00;;;;;;5020261;28;21158;-80
2023/04/19 04:32:42;;;;;;;9.25;4.70;;;5.00;1.00;;;;;;5027195;28;20744;-80
2023/04/19 04:35:14;;;;;;;12.02;5.55;;;5.10;1.00;;;;;;5023217;28;20241;-80
2023/04/19 04:37:41;;;;;;;7.70;4.15;;;5.10;1.00;;;;;;5023187;28;20282;-80
2023/04/19 04:40:11;;;;;;;10.55;4.82;;;5.10;1.00;;;;;;5029436;28;20305;-79
2023/04/19 04:42:38;;;;;;;10.35;3.95;;;5.10;1.00;;;;;;5014579;28;20435;-79
2023/04/19 04:45:09;;;;;;;10.82;6.45;;;5.10;1.00;;;;;;5023631;28;22410;-79
2023/04/19 04:47:37;;;;;;;10.68;3.97;;;5.10;1.00;;;;;;5025871;28;20240;-79
2023/04/19 04:50:07;;;;;;;9.80;3.65;;;5.20;1.00;;;;;;5026136;28;20262;-79
2023/04/19 04:52:40;;;;;;;10.60;4.82;;;5.10;1.00;;;;;;5029310;28;20242;-80
2023/04/19 04:55:08;;;;;;;10.38;4.10;;;5.20;1.00;;;;;;5027457;28;20314;-80
2023/04/19 04:57:38;;;;;;;8.15;3.65;;;5.20;1.00;;;;;;5028285;28;20270;-78
2023/04/19 05:00:08;;;;;;;11.03;3.63;;;5.20;1.00;;;;;;5025571;28;20246;-79
2023/04/19 05:02:36;;;;;;;13.35;4.88;;;5.30;1.00;;;;;;5025549;28;20510;-82
2023/04/19 05:05:05;;;;;;;8.65;4.38;;;5.40;1.00;;;;;;5011954;28;20266;-81
2023/04/19 05:07:32;;;;;;;8.50;3.85;;;5.50;1.00;;;;;;5030802;28;20261;-81
2023/04/19 05:10:00;;;;;;;8.73;4.35;;;5.50;1.00;;;;;;5026329;28;20247;-81
2023/04/19 05:12:27;;;;;;;9.60;3.90;;;5.60;1.00;;;;;;5029935;28;20228;-80
2023/04/19 05:14:54;;;;;;;8.68;4.53;;;5.60;1.00;;;;;;4982567;28;20244;-82
2023/04/19 05:17:21;;;;;;;10.20;4.97;;;5.60;1.00;;;;;;5011869;28;20243;-80
2023/04/19 05:19:49;;;;;;;14.77;9.88;;;5.70;1.00;;;;;;5024568;28;20241;-80
2023/04/19 05:22:18;;;;;;;10.07;5.40;;;5.70;1.00;;;;;;4999173;28;20230;-80
2023/04/19 05:24:46;;;;;;;10.70;4.28;;;5.70;1.00;;;;;;5028903;28;20227;-80
2023/04/19 05:27:13;;;;;;;7.95;3.60;;;5.90;1.00;;;;;;5033331;28;20349;-80
2023/04/19 05:29:40;;;;;;;8.45;4.22;;;6.00;1.00;;;;;;5029756;28;20238;-80
2023/04/19 05:32:08;;;;;;;7.30;3.80;;;6.00;1.00;;;;;;5027127;28;20232;-80
2023/04/19 05:34:36;;;;;;;8.05;3.90;;;6.10;1.00;;;;;;5031504;28;20242;-81
2023/04/19 05:37:05;;;;;;;10.30;3.75;;;6.10;1.00;;;;;;5029183;28;20247;-81
2023/04/19 05:39:33;;;;;;;7.70;3.88;;;6.20;1.00;;;;;;5028713;28;20242;-80
2023/04/19 05:42:06;;;;;;;10.57;4.30;;;6.30;1.00;;;;;;5031350;28;20250;-83
2023/04/19 05:44:35;;;;;;;8.00;3.60;;;6.40;1.00;;;;;;5027463;28;20256;-81
2023/04/19 05:47:08;;;;;;;10.80;4.33;;;6.50;1.00;;;;;;5032439;28;20441;-82
2023/04/19 05:49:36;;;;;;;9.23;3.28;;;6.60;1.00;;;;;;5032310;28;20543;-80
2023/04/19 05:52:06;;;;;;;12.50;4.45;;;6.80;1.00;;;;;;5032842;28;20242;-82
2023/04/19 05:54:34;;;;;;;7.50;3.10;;;6.90;1.00;;;;;;5036321;28;20240;-80
2023/04/19 05:57:03;;;;;;;8.90;3.53;;;7.00;1.00;;;;;;5024825;28;20540;-81
2023/04/19 05:59:31;;;;;;;10.20;4.50;;;7.10;1.00;;;;;;5029624;28;21098;-81
2023/04/19 06:02:01;;;;;;;7.77;3.80;;;7.20;1.00;;;;;;5013110;28;20532;-80
2023/04/19 06:04:29;;;;;;;7.47;3.60;;;7.30;1.00;;;;;;5029357;28;20596;-84
2023/04/19 06:06:56;;;;;;;8.80;3.37;;;7.40;1.00;;;;;;5032468;28;20460;-80
2023/04/19 06:09:24;;;;;;;7.23;3.37;;;7.50;1.00;;;;;;5034179;28;20460;-82
2023/04/19 06:11:55;;;;;;;7.17;3.63;;;7.50;1.00;;;;;;5034231;28;20508;-82
2023/04/19 06:14:23;;;;;;;8.53;3.20;;;7.60;1.00;;;;;;5012558;28;20458;-80
2023/04/19 06:16:51;;;;;;;6.60;2.77;;;7.70;1.00;;;;;;5018240;28;20481;-81
2023/04/19 06:19:27;;;;;;;8.00;2.57;;;7.80;1.00;;;;;;5028705;28;20490;-81
2023/04/19 06:21:57;;;;;;;8.03;3.30;;;7.90;1.00;;;;;;5024812;28;20480;-82
2023/04/19 06:24:25;;;;;;;7.80;4.00;;;8.00;1.00;;;;;;5033266;28;20469;-81
2023/04/19 06:26:54;;;;;;;6.90;2.83;;;8.10;1.00;;;;;;5028667;28;22025;-80
2023/04/19 06:29:23;;;;;;;7.13;2.90;;;8.20;1.00;;;;;;5024657;28;20450;-80
2023/04/19 06:31:50;;;;;;;8.80;3.10;;;8.30;1.00;;;;;;5028497;28;20462;-81
2023/04/19 06:34:17;;;;;;;6.90;3.00;;;8.40;1.00;;;;;;5029287;28;20469;-80
2023/04/19 06:36:45;;;;;;;8.17;3.43;;;8.50;1.00;;;;;;5027538;28;20531;-79
2023/04/19 06:39:13;;;;;;;8.00;3.30;;;8.60;1.00;;;;;;5024535;28;20466;-80
2023/04/19 06:41:40;;;;;;;7.20;2.30;;;8.70;1.00;;;;;;5031622;28;20516;-83
2023/04/19 06:44:09;;;;;;;9.60;3.40;;;8.80;1.00;;;;;;5035075;28;20484;-82
2023/04/19 06:46:37;;;;;;;7.20;3.00;;;8.80;1.00;;;;;;5031922;28;20473;-81
2023/04/19 06:49:04;;;;;;;7.47;3.00;;;8.90;1.00;;;;;;5031745;28;21171;-83
2023/04/19 06:51:33;;;;;;;10.20;3.43;;;9.00;1.00;;;;;;5034554;28;20440;-80
2023/04/19 06:54:02;;;;;;;7.10;3.10;;;9.10;1.00;;;;;;5033395;28;20517;-80
2023/04/19 06:56:47;;;;;;;7.80;2.73;;;9.10;1.00;;;;;;5034503;28;20488;-81
2023/04/19 06:59:18;;;;;;;9.93;3.37;;;9.30;1.00;;;;;;5031261;28;20469;-80
2023/04/19 07:01:48;;;;;;;10.90;3.33;;;9.40;1.00;;;;;;5032875;28;20466;-81
2023/04/19 07:04:15;;;;;;;12.27;3.03;;;9.50;1.00;;;;;;5030273;28;20413;-80
2023/04/19 07:06:42;;;;;;;6.30;2.53;;;9.60;1.00;;;;;;5031380;28;20473;-79
2023/04/19 07:09:09;;;;;;;9.93;5.00;;;9.80;1.00;;;;;;5024474;28;20946;-79
2023/04/19 07:11:37;;;;;;;8.40;3.50;;;9.80;1.00;;;;;;5029597;28;20445;-81
2023/04/19 07:14:04;;;;;;;8.53;2.70;;;9.90;1.00;;;;;;5031379;28;20493;-80
2023/04/19 07:16:33;;;;;;;12.20;3.40;;;10.00;1.00;;;;;;5025600;28;20477;-81
2023/04/19 07:19:01;;;;;;;8.63;2.90;;;10.10;1.00;;;;;;5031372;28;20561;-81
2023/04/19 07:21:32;;;;;;;8.70;3.10;;;10.30;1.00;;;;;;5015546;28;20458;-80
2023/04/19 07:24:01;;;;;;;8.40;3.60;;;10.40;1.00;;;;;;5029152;28;21286;-81
2023/04/19 07:26:33;;;;;;;8.20;2.80;;;10.50;1.00;;;;;;5004124;28;20470;-81
2023/04/19 07:29:04;;;;;;;8.27;2.90;;;10.60;1.00;;;;;;5024397;28;20482;-81
2023/04/19 07:31:33;;;;;;;7.63;3.30;;;10.70;1.00;;;;;;5031880;28;20470;-80
2023/04/19 07:34:01;;;;;;;9.83;3.23;;;10.80;1.00;;;;;;5033922;28;20469;-81
2023/04/19 07:36:28;;;;;;;10.53;4.17;;;11.00;1.00;;;;;;5032713;28;20492;-80
2023/04/19 07:38:56;;;;;;;8.73;4.57;;;11.10;1.00;;;;;;5030222;28;20544;-81
2023/04/19 07:41:23;;;;;;;8.07;2.90;;;11.20;1.00;;;;;;5029845;28;20906;-81
2023/04/19 07:43:50;;;;;;;8.53;2.80;;;11.40;1.00;;;;;;5030994;28;20451;-80
2023/04/19 07:46:20;;;;;;;8.80;3.40;;;11.50;1.00;;;;;;5036375;28;20473;-80
2023/04/19 07:48:48;;;;;;;8.03;2.90;;;11.70;1.00;;;;;;5028975;28;20474;-82
2023/04/19 07:51:19;;;;;;;10.23;3.80;;;12.00;1.00;;;;;;5011747;28;20500;-81
2023/04/19 07:53:51;;;;;;;7.40;3.07;;;12.20;1.00;;;;;;5031334;28;20469;-81
2023/04/19 07:56:25;;;;;;;7.77;2.50;;;12.50;1.00;;;;;;5025291;28;20481;-81
2023/04/19 07:58:55;;;;;;;8.33;2.97;;;12.60;1.00;;;;;;5009525;28;20454;-81
2023/04/19 08:01:22;;;;;;;7.00;3.10;;;12.70;1.00;;;;;;5030744;28;20453;-79
2023/04/19 08:03:52;;;;;;;7.50;3.10;;;12.70;1.00;;;;;;5034475;28;20410;-81
2023/04/19 08:06:20;;;;;;;11.07;3.73;;;12.70;1.00;;;;;;5029565;28;20486;-81
2023/04/19 08:08:49;;;;;;;8.00;3.50;;;12.80;1.00;;;;;;5013596;28;20439;-83
2023/04/19 08:11:17;;;;;;;8.30;3.87;;;12.80;1.00;;;;;;5027526;28;20459;-84
2023/04/19 08:13:46;;;;;;;9.67;3.80;;;12.90;1.00;;;;;;5031684;28;20563;-80
2023/04/19 08:16:12;;;;;;;8.50;3.53;;;12.90;1.00;;;;;;5002911;28;20454;-81
2023/04/19 08:18:41;;;;;;;10.97;3.10;;;13.00;1.00;;;;;;5031364;28;20476;-81
2023/04/19 08:21:10;;;;;;;9.93;3.83;;;13.20;1.00;;;;;;5022264;28;20495;-81
2023/04/19 08:23:37;;;;;;;14.53;4.20;;;13.30;1.00;;;;;;5029596;28;20437;-82
2023/04/19 08:26:04;;;;;;;10.83;4.03;;;13.30;1.00;;;;;;5030212;28;22760;-81
2023/04/19 08:28:33;;;;;;;8.47;2.93;;;13.30;1.00;;;;;;5031920;28;20539;-80
2023/04/19 08:31:06;;;;;;;10.00;4.00;;;13.20;1.00;;;;;;5031890;28;20502;-80
2023/04/19 08:33:33;;;;;;;10.37;4.40;;;13.20;1.00;;;;;;5028358;28;20489;-82
2023/04/19 08:36:00;;;;;;;11.37;4.20;;;13.40;1.00;;;;;;5030645;28;20483;-82
2023/04/19 08:38:28;;;;;;;10.63;3.60;;;13.50;1.00;;;;;;5033497;28;20480;-81
2023/04/19 08:40:55;;;;;;;9.70;5.10;;;13.70;1.00;;;;;;5031657;28;20425;-80
2023/04/19 08:43:27;;;;;;;11.57;4.47;;;13.90;1.00;;;;;;5031350;28;20443;-81
2023/04/19 08:45:56;;;;;;;9.13;3.40;;;13.90;1.00;;;;;;5032737;28;20568;-80
2023/04/19 08:48:24;;;;;;;10.27;3.87;;;14.10;1.00;;;;;;5031297;28;20468;-80
2023/04/19 08:50:52;;;;;;;9.53;4.67;;;14.30;1.00;;;;;;5028872;28;21062;-80
2023/04/19 08:53:19;;;;;;;9.30;3.70;;;14.30;1.00;;;;;;5028997;28;20466;-78
2023/04/19 08:55:53;;;;;;;12.37;5.07;;;14.40;1.00;;;;;;5023486;28;20574;-79
2023/04/19 08:58:20;;;;;;;9.50;3.47;;;14.30;1.00;;;;;;5022774;28;20458;-78
2023/04/19 09:00:47;;;;;;;8.63;3.60;;;14.60;1.00;;;;;;5022252;28;20462;-78
2023/04/19 09:03:14;;;;;;;10.07;3.50;;;14.90;1.00;;;;;;5024516;28;20426;-78
2023/04/19 09:05:41;;;;;;;10.00;4.07;;;15.40;1.00;;;;;;5022778;28;20485;-79
2023/04/19 09:08:23;;;;;;;8.70;3.50;;;15.80;1.00;;;;;;5011860;28;20460;-79
2023/04/19 09:11:00;;;;;;;13.40;3.40;;;15.90;1.00;;;;;;5023590;28;20535;-79
2023/04/19 09:13:28;;;;;;;8.90;3.80;;;16.10;1.00;;;;;;5026546;28;20462;-79
2023/04/19 09:15:58;;;;;;;12.07;4.70;;;16.00;1.00;;;;;;5023251;28;20448;-78
2023/04/19 09:18:29;;;;;;;10.13;3.60;;;16.00;1.00;;;;;;5004925;28;20457;-78
2023/04/19 09:20:57;;;;;;;8.30;3.53;;;16.00;1.00;;;;;;5023529;28;20493;-78
2023/04/19 09:23:25;;;;;;;11.23;3.90;;;16.20;1.00;;;;;;5027527;28;21038;-78
2023/04/19 09:25:56;;;;;;;9.17;3.83;;;16.60;1.00;;;;;;5019584;28;20470;-78
2023/04/19 09:28:24;;;;;;;7.30;3.67;;;17.10;1.00;;;;;;5029393;28;20466;-78
2023/04/19 09:30:51;;;;;;;11.70;3.80;;;18.00;1.00;;;;;;5025803;28;20592;-79
2023/04/19 09:33:45;;;;;;;9.43;3.60;;;19.10;1.00;;;;;;5027772;28;21099;-79
2023/04/19 09:36:27;;;;;;;10.87;3.50;;;19.60;1.00;;;;;;5007079;28;20904;-79
2023/04/19 09:38:55;;;;;;;8.07;3.23;;;20.60;1.00;;;;;;5025922;28;20468;-79
2023/04/19 09:41:26;;;;;;;9.93;3.70;;;20.60;1.00;;;;;;5030095;28;20994;-79
2023/04/19 09:43:53;;;;;;;11.00;4.77;;;21.10;1.00;;;;;;5023651;28;20474;-79
2023/04/19 09:46:39;;;;;;;11.33;4.27;;;22.40;1.00;;;;;;5027588;28;20480;-78
2023/04/19 09:51:58;;;;;;;8.17;3.47;;;24.90;1.00;;;;;;5024463;28;20463;-78
2023/04/19 09:54:28;;;;;;;8.23;4.27;;;25.00;1.00;;;;;;5014161;28;20421;-78
2023/04/19 09:56:57;;;;;;;9.93;3.73;;;25.70;1.00;;;;;;5026988;28;20511;-78
2023/04/19 09:59:29;;;;;;;14.77;4.00;;;26.40;1.00;;;;;;5026012;28;20492;-79
2023/04/19 10:01:59;;;;;;;9.33;4.40;;;26.00;1.00;;;;;;5017380;28;20474;-78
2023/04/19 10:04:31;;;;;;;8.43;4.47;;;26.10;1.00;;;;;;5013516;28;20544;-79
2023/04/19 10:07:01;;;;;;;10.40;4.10;;;26.30;1.00;;;;;;5027015;28;20907;-79
2023/04/19 10:09:31;;;;;;;6.77;3.63;;;27.20;1.00;;;;;;5026369;28;20504;-81
2023/04/19 10:12:01;;;;;;;6.70;3.37;;;27.70;1.00;;;;;;5025742;28;20559;-78
2023/04/19 10:14:34;;;;;;;6.30;3.30;;;28.10;1.00;;;;;;5029139;28;20420;-78
2023/04/19 10:17:02;;;;;;;8.47;3.97;;;27.50;1.00;;;;;;5028575;28;20602;-78
2023/04/19 10:19:31;;;;;;;8.77;4.27;;;27.50;1.00;;;;;;5028322;28;20873;-78
2023/04/19 10:22:04;;;;;;;7.57;4.10;;;27.70;1.00;;;;;;5028989;28;20471;-79
2023/04/19 10:24:31;;;;;;;7.93;3.97;;;27.60;1.00;;;;;;5025965;28;20465;-79
2023/04/19 10:27:12;;;;;;;9.40;4.50;;;27.40;1.00;;;;;;5023082;28;20481;-79
2023/04/19 10:29:58;;;;;;;13.90;4.40;;;27.70;1.00;;;;;;5025922;28;22550;-79
2023/04/19 10:32:30;;;;;;;12.33;4.40;;;27.90;1.00;;;;;;5027397;28;20459;-78
2023/04/19 10:35:03;;;;;;;12.10;4.20;;;26.20;1.00;;;;;;5024635;28;20464;-78
2023/04/19 10:37:34;;;;;;;9.00;3.73;;;24.90;1.00;;;;;;5015174;28;20860;-78
2023/04/19 10:40:03;;;;;;;8.10;4.20;;;24.00;1.00;;;;;;5014030;28;20457;-79
2023/04/19 10:43:05;;;;;;;8.87;4.37;;;23.80;1.00;;;;;;5027080;28;20486;-78
2023/04/19 10:45:36;;;;;;;11.90;4.20;;;24.70;1.00;;;;;;5021824;28;20470;-79
2023/04/19 10:48:04;;;;;;;8.13;4.10;;;25.60;1.00;;;;;;5026019;28;20475;-79
2023/04/19 10:51:04;;;;;;;7.70;4.07;;;25.80;1.00;;;;;;5024485;28;20592;-78
2023/04/19 10:53:45;;;;;;;9.27;4.40;;;24.50;1.00;;;;;;5026296;28;20487;-78
2023/04/19 10:56:12;;;;;;;9.70;4.13;;;23.30;1.00;;;;;;5026480;28;20557;-79
2023/04/19 10:59:20;;;;;;;9.73;4.10;;;23.70;1.00;;;;;;5022771;28;20940;-78
2023/04/19 11:01:51;;;;;;;9.73;4.83;;;23.40;1.00;;;;;;5026081;28;20450;-78
2023/04/19 11:04:21;;;;;;;11.30;4.70;;;22.10;1.00;;;;;;5026346;28;20504;-79
2023/04/19 11:07:01;;;;;;;11.33;4.10;;;21.40;1.00;;;;;;5025283;28;20531;-78
2023/04/19 11:09:33;;;;;;;11.87;5.00;;;20.70;1.00;;;;;;5025863;28;20483;-77
2023/04/19 11:12:03;;;;;;;9.40;4.50;;;20.30;1.00;;;;;;5024754;28;20469;-78
2023/04/19 11:14:32;;;;;;;11.70;4.83;;;19.90;1.00;;;;;;5027033;28;20559;-79
2023/04/19 11:17:03;;;;;;;9.90;4.13;;;20.00;1.00;;;;;;5026360;28;20924;-79
2023/04/19 11:19:30;;;;;;;9.90;4.60;;;21.10;1.00;;;;;;5026032;28;20472;-77
2023/04/19 11:21:59;;;;;;;10.13;6.40;;;22.50;1.00;;;;;;5022090;28;20517;-78
2023/04/19 11:24:26;;;;;;;9.70;4.33;;;22.70;1.00;;;;;;5023279;28;20473;-77
2023/04/19 11:26:57;;;;;;;8.70;4.47;;;23.20;1.00;;;;;;5024872;28;20498;-77
2023/04/19 11:29:25;;;;;;;11.47;5.27;;;23.60;1.00;;;;;;5027917;28;20486;-77
2023/04/19 11:31:52;;;;;;;9.90;4.80;;;22.60;1.00;;;;;;5029230;28;20582;-78
2023/04/19 11:34:24;;;;;;;12.33;5.10;;;21.90;1.00;;;;;;5028911;28;20454;-78
2023/04/19 11:36:51;;;;;;;9.20;4.53;;;21.70;1.00;;;;;;5025167;28;21009;-78
2023/04/19 11:39:21;;;;;;;9.77;5.00;;;21.40;1.00;;;;;;5026150;28;20559;-78
2023/04/19 11:41:51;;;;;;;8.37;4.53;;;21.30;1.00;;;;;;5024639;28;20585;-78
2023/04/19 11:44:21;;;;;;;9.70;5.10;;;21.30;1.00;;;;;;5024973;28;20534;-78
2023/04/19 11:46:59;;;;;;;8.60;3.60;;;21.00;1.00;;;;;;5007662;28;21149;-78
2023/04/19 11:49:30;;;;;;;10.53;4.37;;;20.30;1.00;;;;;;5025662;28;20476;-79
2023/04/19 11:52:01;;;;;;;12.60;4.93;;;19.70;1.00;;;;;;5024470;28;20490;-78
2023/04/19 11:54:28;;;;;;;10.93;4.70;;;19.00;1.00;;;;;;5023508;28;20461;-78
2023/04/19 11:57:00;;;;;;;8.73;3.70;;;18.20;1.00;;;;;;5023234;28;20474;-78
2023/04/19 11:59:28;;;;;;;8.50;4.27;;;17.70;1.00;;;;;;5025035;28;20479;-77
2023/04/19 12:01:58;;;;;;;10.17;4.20;;;17.60;1.00;;;;;;5025061;28;20504;-79
2023/04/19 12:04:25;;;;;;;8.27;3.63;;;18.00;1.00;;;;;;5026619;28;20446;-78
2023/04/19 12:07:02;;;;;;;8.63;3.60;;;18.60;1.00;;;;;;5028087;28;20432;-78
2023/04/19 12:09:29;;;;;;;11.33;3.50;;;19.20;1.00;;;;;;5022392;28;20531;-79
2023/04/19 12:11:57;;;;;;;8.50;3.67;;;19.60;1.00;;;;;;5026508;28;20980;-77
2023/04/19 12:14:25;;;;;;;12.57;4.50;;;19.80;1.00;;;;;;5024146;28;20462;-78
2023/04/19 12:17:10;;;;;;;10.00;4.27;;;19.60;1.00;;;;;;5023869;28;20475;-79
2023/04/19 12:19:45;;;;;;;10.50;3.90;;;19.40;1.00;;;;;;5026757;28;20487;-77
2023/04/19 12:22:15;;;;;;;13.50;5.27;;;19.20;1.00;;;;;;5026060;28;21454;-78
2023/04/19 12:24:43;;;;;;;11.50;4.23;;;18.60;1.00;;;;;;5025490;28;20857;-78
2023/04/19 12:27:11;;;;;;;8.53;4.40;;;18.20;1.00;;;;;;5024301;28;20551;-78
2023/04/19 12:29:39;;;;;;;11.83;5.30;;;18.30;1.00;;;;;;5009825;28;20478;-77
2023/04/19 12:32:09;;;;;;;9.20;4.27;;;18.30;1.00;;;;;;5022267;28;20623;-77
2023/04/19 12:34:39;;;;;;;8.57;3.80;;;18.50;1.00;;;;;;5023846;28;20862;-78
2023/04/19 12:37:06;;;;;;;9.57;3.70;;;18.80;1.00;;;;;;5030032;28;20463;-77
2023/04/19 12:39:35;;;;;;;8.40;4.23;;;19.00;1.00;;;;;;5024103;28;20497;-78
2023/04/19 12:42:02;;;;;;;10.43;4.20;;;19.00;1.00;;;;;;5028489;28;20481;-78
2023/04/19 12:44:29;;;;;;;8.97;4.73;;;18.80;1.00;;;;;;5027219;28;21000;-78
2023/04/19 12:46:56;;;;;;;10.73;4.90;;;19.10;1.00;;;;;;5026410;28;20460;-79
2023/04/19 12:49:24;;;;;;;9.53;3.87;;;19.40;1.00;;;;;;5024899;28;20553;-78
2023/04/19 12:51:51;;;;;;;12.83;5.13;;;20.00;1.00;;;;;;5027966;28;20471;-78
2023/04/19 12:54:25;;;;;;;9.70;4.27;;;20.40;1.00;;;;;;5024242;28;20471;-78
2023/04/19 12:56:53;;;;;;;9.80;4.67;;;20.40;1.00;;;;;;5026656;28;21067;-79
2023/04/19 12:59:22;;;;;;;12.83;6.27;;;20.80;1.00;;;;;;5031027;28;20470;-78
2023/04/19 13:01:49;;;;;;;10.67;4.57;;;21.30;1.00;;;;;;5024620;28;20462;-78
2023/04/19 13:04:16;;;;;;;9.37;4.90;;;21.50;1.00;;;;;;5029019;28;20521;-78
2023/04/19 13:06:43;;;;;;;8.63;4.83;;;21.50;1.00;;;;;;5028284;28;20509;-77
2023/04/19 13:09:10;;;;;;;10.37;4.63;;;21.90;1.00;;;;;;5027822;28;20487;-78
2023/04/19 13:11:37;;;;;;;8.90;4.60;;;23.00;1.00;;;;;;5028891;28;20464;-79
2023/04/19 13:14:08;;;;;;;8.90;4.67;;;24.10;1.00;;;;;;5019222;28;20466;-79
2023/04/19 13:16:38;;;;;;;10.90;5.80;;;24.90;1.00;;;;;;5028635;28;20553;-79
2023/04/19 13:19:05;;;;;;;11.03;4.50;;;25.00;1.00;;;;;;5028688;28;20470;-78
2023/04/19 13:21:32;;;;;;;9.90;4.30;;;24.90;1.00;;;;;;5028544;28;20450;-78
2023/04/19 13:23:59;;;;;;;9.93;5.17;;;24.20;1.00;;;;;;5024384;28;20489;-78
2023/04/19 13:26:30;;;;;;;10.23;4.03;;;23.00;1.00;;;;;;5026495;28;20468;-79
2023/04/19 13:29:00;;;;;;;9.83;4.73;;;21.70;1.00;;;;;;5027410;28;20902;-77
2023/04/19 13:31:28;;;;;;;10.30;4.83;;;20.40;1.00;;;;;;5027177;28;20485;-78
2023/04/19 13:33:55;;;;;;;10.80;4.37;;;19.60;1.00;;;;;;5024987;28;20472;-78
2023/04/19 13:36:23;;;;;;;12.33;5.83;;;19.20;1.00;;;;;;5025151;28;20469;-78
2023/04/19 13:38:50;;;;;;;9.40;4.23;;;18.80;1.00;;;;;;5023749;28;20477;-78
2023/04/19 13:41:20;;;;;;;8.97;4.23;;;18.20;1.00;;;;;;5027430;28;20510;-77
2023/04/19 13:43:51;;;;;;;8.10;4.27;;;17.80;1.00;;;;;;5025183;28;20485;-79
2023/04/19 13:46:20;;;;;;;11.07;5.40;;;17.30;1.00;;;;;;5016847;28;20945;-77